sensor_id;sensor_type;location;lat;lon;timestamp;pressure;altitude;pressure_sealevel;temperature;humidity
44825;BME280;30542;47.928;2.138;2023-10-09T00:04:42;101073.94;;;22.52;46.94
44825;BME280;30542;47.928;2.138;2023-10-09T00:09:45;101086.28;;;22.58;46.50
44825;BME280;30542;47.928;2.138;2023-10-09T00:14:49;101088.19;;;22.57;46.58
44825;BME280;30542;47.928;2.138;2023-10-09T00:19:51;101086.28;;;22.58;46.46
44825;BME280;30542;47.928;2.138;2023-10-09T00:24:56;101091.66;;;22.58;46.52
44825;BME280;30542;47.928;2.138;2023-10-09T00:30:23;101093.56;;;22.57;46.38
44825;BME280;30542;47.928;2.138;2023-10-09T00:35:29;101094.34;;;22.58;46.50
44825;BME280;30542;47.928;2.138;2023-10-09T00:40:54;101088.41;;;22.56;46.48
44825;BME280;30542;47.928;2.138;2023-10-09T00:46:05;101086.56;;;22.56;46.69
44825;BME280;30542;47.928;2.138;2023-10-09T00:51:24;101076.88;;;22.55;46.55
44825;BME280;30542;47.928;2.138;2023-10-09T00:56:27;101075.28;;;22.54;46.49
44825;BME280;30542;47.928;2.138;2023-10-09T01:01:28;101082.00;;;22.52;46.57
44825;BME280;30542;47.928;2.138;2023-10-09T01:06:34;101078.47;;;22.51;46.62
44825;BME280;30542;47.928;2.138;2023-10-09T01:11:43;101069.63;;;22.51;46.83
44825;BME280;30542;47.928;2.138;2023-10-09T01:16:59;101066.41;;;22.49;46.45
44825;BME280;30542;47.928;2.138;2023-10-09T01:22:01;101059.38;;;22.43;46.60
44825;BME280;30542;47.928;2.138;2023-10-09T01:27:12;101059.66;;;22.46;46.40
44825;BME280;30542;47.928;2.138;2023-10-09T01:32:15;101057.25;;;22.45;46.33
44825;BME280;30542;47.928;2.138;2023-10-09T01:37:21;101062.63;;;22.45;46.52
44825;BME280;30542;47.928;2.138;2023-10-09T01:42:29;101064.75;;;22.43;46.55
44825;BME280;30542;47.928;2.138;2023-10-09T01:47:29;101062.88;;;22.43;46.54
44825;BME280;30542;47.928;2.138;2023-10-09T01:52:31;101086.50;;;22.41;46.67
44825;BME280;30542;47.928;2.138;2023-10-09T01:57:35;101082.19;;;22.40;46.15
44825;BME280;30542;47.928;2.138;2023-10-09T02:02:39;101086.50;;;22.41;46.33
44825;BME280;30542;47.928;2.138;2023-10-09T02:07:45;101091.88;;;22.41;46.34
44825;BME280;30542;47.928;2.138;2023-10-09T02:12:52;101076.03;;;22.40;46.71
44825;BME280;30542;47.928;2.138;2023-10-09T02:18:20;101077.34;;;22.37;46.57
44825;BME280;30542;47.928;2.138;2023-10-09T02:23:21;101068.19;;;22.33;46.60
44825;BME280;30542;47.928;2.138;2023-10-09T02:28:25;101074.09;;;22.35;46.79
44825;BME280;30542;47.928;2.138;2023-10-09T02:33:32;101060.94;;;22.33;46.54
44825;BME280;30542;47.928;2.138;2023-10-09T02:38:36;101061.22;;;22.32;46.66
44825;BME280;30542;47.928;2.138;2023-10-09T02:43:40;101069.53;;;22.30;46.47
44825;BME280;30542;47.928;2.138;2023-10-09T02:48:48;101048.31;;;22.29;46.59
44825;BME280;30542;47.928;2.138;2023-10-09T02:53:53;101044.03;;;22.28;46.50
44825;BME280;30542;47.928;2.138;2023-10-09T02:58:55;101042.16;;;22.33;46.48
44825;BME280;30542;47.928;2.138;2023-10-09T03:04:06;101031.44;;;22.33;46.57
44825;BME280;30542;47.928;2.138;2023-10-09T03:09:10;101042.44;;;22.32;46.38
44825;BME280;30542;47.928;2.138;2023-10-09T03:14:17;101045.38;;;22.30;46.89
44825;BME280;30542;47.928;2.138;2023-10-09T03:19:17;101041.06;;;22.29;46.43
44825;BME280;30542;47.928;2.138;2023-10-09T03:24:18;101041.88;;;22.30;46.22
44825;BME280;30542;47.928;2.138;2023-10-09T03:29:20;101036.78;;;22.28;46.75
44825;BME280;30542;47.928;2.138;2023-10-09T03:34:20;101038.66;;;22.28;46.58
44825;BME280;30542;47.928;2.138;2023-10-09T03:39:20;101030.63;;;22.28;46.31
44825;BME280;30542;47.928;2.138;2023-10-09T03:44:36;101028.72;;;22.28;46.63
44825;BME280;30542;47.928;2.138;2023-10-09T03:49:41;101037.03;;;22.27;46.46
44825;BME280;30542;47.928;2.138;2023-10-09T03:54:41;101026.28;;;22.27;46.28
44825;BME280;30542;47.928;2.138;2023-10-09T03:59:47;101029.25;;;22.25;46.12
44825;BME280;30542;47.928;2.138;2023-10-09T04:04:48;101048.31;;;22.24;45.94
44825;BME280;30542;47.928;2.138;2023-10-09T04:09:51;101039.44;;;22.23;46.18
44825;BME280;30542;47.928;2.138;2023-10-09T04:15:12;101035.94;;;22.23;46.59
44825;BME280;30542;47.928;2.138;2023-10-09T04:20:15;101033.53;;;22.21;46.33
44825;BME280;30542;47.928;2.138;2023-10-09T04:25:19;101028.16;;;22.21;46.32
44825;BME280;30542;47.928;2.138;2023-10-09T04:30:27;101039.97;;;22.20;46.29
44825;BME280;30542;47.928;2.138;2023-10-09T04:35:30;101046.41;;;22.19;46.30
44825;BME280;30542;47.928;2.138;2023-10-09T04:40:30;101049.34;;;22.18;46.47
44825;BME280;30542;47.928;2.138;2023-10-09T04:45:49;101048.53;;;22.17;46.36
44825;BME280;30542;47.928;2.138;2023-10-09T04:51:14;101046.91;;;22.16;46.23
44825;BME280;30542;47.928;2.138;2023-10-09T04:56:21;101044.22;;;22.16;46.23
44825;BME280;30542;47.928;2.138;2023-10-09T05:01:24;101045.31;;;22.15;46.18
44825;BME280;30542;47.928;2.138;2023-10-09T05:06:36;101041.81;;;22.15;46.52
44825;BME280;30542;47.928;2.138;2023-10-09T05:17:09;101052.81;;;22.13;46.17
44825;BME280;30542;47.928;2.138;2023-10-09T05:22:15;101058.41;;;22.12;46.09
44825;BME280;30542;47.928;2.138;2023-10-09T05:27:36;101067.53;;;22.11;46.24
44825;BME280;30542;47.928;2.138;2023-10-09T05:32:54;101067.53;;;22.11;46.25
44825;BME280;30542;47.928;2.138;2023-10-09T05:38:23;101076.63;;;22.09;46.21
44825;BME280;30542;47.928;2.138;2023-10-09T05:43:25;101069.66;;;22.08;46.20
44825;BME280;30542;47.928;2.138;2023-10-09T05:48:43;101072.34;;;22.08;46.29
44825;BME280;30542;47.928;2.138;2023-10-09T05:53:44;101073.41;;;22.07;46.20
44825;BME280;30542;47.928;2.138;2023-10-09T05:58:44;101082.53;;;22.06;46.03
44825;BME280;30542;47.928;2.138;2023-10-09T06:04:09;101083.34;;;22.07;45.87
44825;BME280;30542;47.928;2.138;2023-10-09T06:09:19;101078.47;;;22.04;45.74
44825;BME280;30542;47.928;2.138;2023-10-09T06:14:23;101092.16;;;22.02;45.63
44825;BME280;30542;47.928;2.138;2023-10-09T06:19:29;101089.47;;;22.02;45.47
44825;BME280;30542;47.928;2.138;2023-10-09T06:24:31;101086.78;;;22.02;45.86
44825;BME280;30542;47.928;2.138;2023-10-09T06:29:51;101098.31;;;22.03;46.53
44825;BME280;30542;47.928;2.138;2023-10-09T06:34:57;101108.53;;;22.06;46.82
44825;BME280;30542;47.928;2.138;2023-10-09T06:40:15;101100.22;;;22.02;46.62
44825;BME280;30542;47.928;2.138;2023-10-09T06:45:35;101103.13;;;22.01;45.28
44825;BME280;30542;47.928;2.138;2023-10-09T06:50:43;101089.28;;;21.77;43.76
44825;BME280;30542;47.928;2.138;2023-10-09T06:55:56;101112.44;;;21.88;43.23
44825;BME280;30542;47.928;2.138;2023-10-09T07:01:05;101119.84;;;21.76;42.18
44825;BME280;30542;47.928;2.138;2023-10-09T07:06:28;101102.81;;;21.60;41.93
44825;BME280;30542;47.928;2.138;2023-10-09T07:11:36;101112.34;;;21.46;42.09
44825;BME280;30542;47.928;2.138;2023-10-09T07:16:42;101121.66;;;21.38;42.34
44825;BME280;30542;47.928;2.138;2023-10-09T07:21:57;101119.13;;;21.31;42.86
44825;BME280;30542;47.928;2.138;2023-10-09T07:27:05;101136.09;;;21.32;46.95
44825;BME280;30542;47.928;2.138;2023-10-09T07:32:12;101140.53;;;21.26;48.42
44825;BME280;30542;47.928;2.138;2023-10-09T07:37:12;101151.47;;;21.20;47.51
44825;BME280;30542;47.928;2.138;2023-10-09T07:42:19;101152.94;;;21.10;46.72
44825;BME280;30542;47.928;2.138;2023-10-09T07:47:26;101150.78;;;21.07;46.41
44825;BME280;30542;47.928;2.138;2023-10-09T07:52:57;101152.41;;;21.08;46.71
44825;BME280;30542;47.928;2.138;2023-10-09T07:58:15;101168.53;;;21.14;47.02
44825;BME280;30542;47.928;2.138;2023-10-09T08:03:16;101162.94;;;21.15;47.30
44825;BME280;30542;47.928;2.138;2023-10-09T08:08:24;101163.22;;;21.19;47.41
44825;BME280;30542;47.928;2.138;2023-10-09T08:13:33;101165.41;;;21.22;48.24
44825;BME280;30542;47.928;2.138;2023-10-09T08:18:52;101165.13;;;21.23;48.18
44825;BME280;30542;47.928;2.138;2023-10-09T08:23:52;101162.72;;;21.22;48.93
44825;BME280;30542;47.928;2.138;2023-10-09T08:28:53;101161.66;;;21.23;49.39
44825;BME280;30542;47.928;2.138;2023-10-09T08:33:54;101163.84;;;21.26;49.55
44825;BME280;30542;47.928;2.138;2023-10-09T08:39:02;101158.53;;;21.31;49.48
44825;BME280;30542;47.928;2.138;2023-10-09T08:44:19;101158.63;;;21.36;49.45
44825;BME280;30542;47.928;2.138;2023-10-09T08:49:21;101162.97;;;21.42;49.28
44825;BME280;30542;47.928;2.138;2023-10-09T08:54:22;101172.94;;;21.47;49.58
44825;BME280;30542;47.928;2.138;2023-10-09T08:59:22;101160.28;;;21.42;49.60
44825;BME280;30542;47.928;2.138;2023-10-09T09:04:36;101167.63;;;21.52;50.34
44825;BME280;30542;47.928;2.138;2023-10-09T09:09:54;101169.50;;;21.51;50.60
44825;BME280;30542;47.928;2.138;2023-10-09T09:14:57;101162.56;;;21.55;50.89
44825;BME280;30542;47.928;2.138;2023-10-09T09:19:57;101160.75;;;21.61;51.11
44825;BME280;30542;47.928;2.138;2023-10-09T09:24:59;101162.66;;;21.66;51.27
44825;BME280;30542;47.928;2.138;2023-10-09T09:30:03;101165.44;;;21.76;50.94
44825;BME280;30542;47.928;2.138;2023-10-09T09:35:12;101169.81;;;21.87;50.86
44825;BME280;30542;47.928;2.138;2023-10-09T09:40:20;101168.78;;;21.93;50.50
44825;BME280;30542;47.928;2.138;2023-10-09T09:45:32;101166.41;;;21.97;50.46
44825;BME280;30542;47.928;2.138;2023-10-09T09:50:33;101161.84;;;21.97;50.33
44825;BME280;30542;47.928;2.138;2023-10-09T09:55:38;101162.72;;;22.03;50.05
44825;BME280;30542;47.928;2.138;2023-10-09T10:00:42;101158.44;;;22.07;49.86
44825;BME280;30542;47.928;2.138;2023-10-09T10:05:43;101152.31;;;22.12;49.56
44825;BME280;30542;47.928;2.138;2023-10-09T10:10:47;101150.19;;;22.14;49.35
44825;BME280;30542;47.928;2.138;2023-10-09T10:21:14;101158.00;;;22.15;49.11
44825;BME280;30542;47.928;2.138;2023-10-09T10:26:34;101144.59;;;22.15;49.27
44825;BME280;30542;47.928;2.138;2023-10-09T10:31:54;101145.13;;;22.17;49.06
44825;BME280;30542;47.928;2.138;2023-10-09T10:36:58;101140.31;;;22.19;48.40
44825;BME280;30542;47.928;2.138;2023-10-09T10:42:01;101140.84;;;22.21;48.94
44825;BME280;30542;47.928;2.138;2023-10-09T10:47:06;101142.47;;;22.22;48.87
44825;BME280;30542;47.928;2.138;2023-10-09T10:52:22;101145.16;;;22.22;48.61
44825;BME280;30542;47.928;2.138;2023-10-09T10:57:36;101137.91;;;22.23;48.58
44825;BME280;30542;47.928;2.138;2023-10-09T11:02:55;101143.28;;;22.23;48.47
44825;BME280;30542;47.928;2.138;2023-10-09T11:08:13;101144.91;;;22.24;48.48
44825;BME280;30542;47.928;2.138;2023-10-09T11:13:20;101141.69;;;22.27;48.52
44825;BME280;30542;47.928;2.138;2023-10-09T11:18:39;101130.94;;;22.22;48.19
44825;BME280;30542;47.928;2.138;2023-10-09T11:23:44;101123.75;;;22.27;48.17
44825;BME280;30542;47.928;2.138;2023-10-09T11:29:12;101127.75;;;22.30;48.19
44825;BME280;30542;47.928;2.138;2023-10-09T11:34:32;101122.38;;;22.30;48.14
44825;BME280;30542;47.928;2.138;2023-10-09T11:39:34;101110.59;;;22.31;48.07
44825;BME280;30542;47.928;2.138;2023-10-09T11:44:41;101104.16;;;22.32;47.91
44825;BME280;30542;47.928;2.138;2023-10-09T11:49:54;101101.47;;;22.32;48.04
44825;BME280;30542;47.928;2.138;2023-10-09T11:55:04;101099.59;;;22.32;48.13
44825;BME280;30542;47.928;2.138;2023-10-09T12:00:15;101086.19;;;22.32;47.84
44825;BME280;30542;47.928;2.138;2023-10-09T12:05:31;101084.31;;;22.33;47.73
44825;BME280;30542;47.928;2.138;2023-10-09T12:10:32;101075.44;;;22.32;47.62
44825;BME280;30542;47.928;2.138;2023-10-09T12:15:34;101061.75;;;22.34;47.93
44825;BME280;30542;47.928;2.138;2023-10-09T12:20:37;101055.31;;;22.35;48.19
44825;BME280;30542;47.928;2.138;2023-10-09T12:25:38;101046.22;;;22.36;47.73
44825;BME280;30542;47.928;2.138;2023-10-09T12:30:38;101042.72;;;22.36;47.91
44825;BME280;30542;47.928;2.138;2023-10-09T12:35:42;101044.56;;;22.35;47.84
44825;BME280;30542;47.928;2.138;2023-10-09T12:40:46;101030.41;;;22.40;48.41
44825;BME280;30542;47.928;2.138;2023-10-09T12:45:52;101034.69;;;22.46;48.68
44825;BME280;30542;47.928;2.138;2023-10-09T12:50:57;101035.50;;;22.51;48.40
44825;BME280;30542;47.928;2.138;2023-10-09T12:55:57;101037.16;;;22.52;48.33
44825;BME280;30542;47.928;2.138;2023-10-09T13:00:58;101024.81;;;22.56;48.50
44825;BME280;30542;47.928;2.138;2023-10-09T13:06:09;101026.72;;;22.61;48.04
44825;BME280;30542;47.928;2.138;2023-10-09T13:11:12;101016.25;;;22.65;48.09
44825;BME280;30542;47.928;2.138;2023-10-09T13:16:17;101008.72;;;22.67;47.91
44825;BME280;30542;47.928;2.138;2023-10-09T13:21:24;100997.44;;;22.65;47.73
44825;BME280;30542;47.928;2.138;2023-10-09T13:26:31;101005.78;;;22.73;47.13
44825;BME280;30542;47.928;2.138;2023-10-09T13:31:35;101002.84;;;22.75;46.46
44825;BME280;30542;47.928;2.138;2023-10-09T13:36:38;101003.91;;;22.79;46.18
44825;BME280;30542;47.928;2.138;2023-10-09T13:41:38;100995.34;;;22.82;46.35
44825;BME280;30542;47.928;2.138;2023-10-09T13:46:42;100989.97;;;22.82;46.42
44825;BME280;30542;47.928;2.138;2023-10-09T13:51:43;100981.34;;;22.80;46.47
44825;BME280;30542;47.928;2.138;2023-10-09T13:56:47;100987.28;;;22.87;46.15
44825;BME280;30542;47.928;2.138;2023-10-09T14:01:53;100989.44;;;22.85;45.46
44825;BME280;30542;47.928;2.138;2023-10-09T14:06:59;100986.19;;;22.88;45.42
44825;BME280;30542;47.928;2.138;2023-10-09T14:12:01;100977.06;;;22.89;46.04
44825;BME280;30542;47.928;2.138;2023-10-09T14:17:09;100976.84;;;22.91;46.11
44825;BME280;30542;47.928;2.138;2023-10-09T14:22:12;100975.47;;;22.93;45.98
44825;BME280;30542;47.928;2.138;2023-10-09T14:27:16;100966.09;;;22.91;45.91
44825;BME280;30542;47.928;2.138;2023-10-09T14:32:19;100969.59;;;22.96;45.40
44825;BME280;30542;47.928;2.138;2023-10-09T14:37:19;100965.00;;;22.97;45.89
44825;BME280;30542;47.928;2.138;2023-10-09T14:42:19;100959.09;;;23.00;45.99
44825;BME280;30542;47.928;2.138;2023-10-09T14:47:20;100962.34;;;23.02;45.84
44825;BME280;30542;47.928;2.138;2023-10-09T14:52:21;100962.34;;;23.12;44.97
44825;BME280;30542;47.928;2.138;2023-10-09T14:57:21;100953.19;;;23.13;44.63
44825;BME280;30542;47.928;2.138;2023-10-09T15:02:22;100959.91;;;23.21;44.19
44825;BME280;30542;47.928;2.138;2023-10-09T15:07:23;100954.00;;;23.24;44.07
44825;BME280;30542;47.928;2.138;2023-10-09T15:12:24;100958.28;;;23.25;44.15
44825;BME280;30542;47.928;2.138;2023-10-09T15:17:25;100957.22;;;23.26;44.96
44825;BME280;30542;47.928;2.138;2023-10-09T15:22:26;100945.66;;;23.25;45.82
44825;BME280;30542;47.928;2.138;2023-10-09T15:27:34;100945.66;;;23.36;46.47
44825;BME280;30542;47.928;2.138;2023-10-09T15:32:34;100952.13;;;23.40;47.00
44825;BME280;30542;47.928;2.138;2023-10-09T15:37:36;100938.91;;;23.38;47.38
44825;BME280;30542;47.928;2.138;2023-10-09T15:42:36;100955.06;;;23.48;47.61
44825;BME280;30542;47.928;2.138;2023-10-09T15:47:37;100949.94;;;23.52;47.95
44825;BME280;30542;47.928;2.138;2023-10-09T15:52:37;100943.75;;;23.56;47.90
44825;BME280;30542;47.928;2.138;2023-10-09T15:57:41;100948.03;;;23.57;48.01
44825;BME280;30542;47.928;2.138;2023-10-09T16:02:41;100956.63;;;23.60;48.27
44825;BME280;30542;47.928;2.138;2023-10-09T16:07:43;100953.13;;;23.59;48.28
44825;BME280;30542;47.928;2.138;2023-10-09T16:12:44;100959.06;;;23.61;48.64
44825;BME280;30542;47.928;2.138;2023-10-09T16:17:47;100970.63;;;23.62;48.73
44825;BME280;30542;47.928;2.138;2023-10-09T16:22:58;100969.53;;;23.63;48.61
44825;BME280;30542;47.928;2.138;2023-10-09T16:28:03;100965.53;;;23.65;48.61
44825;BME280;30542;47.928;2.138;2023-10-09T16:33:03;100960.97;;;23.66;49.15
44825;BME280;30542;47.928;2.138;2023-10-09T16:38:05;100963.66;;;23.66;49.41
44825;BME280;30542;47.928;2.138;2023-10-09T16:43:08;100960.16;;;23.65;49.94
44825;BME280;30542;47.928;2.138;2023-10-09T16:48:13;100957.69;;;23.64;49.95
44825;BME280;30542;47.928;2.138;2023-10-09T16:53:15;100964.16;;;23.63;50.06
44825;BME280;30542;47.928;2.138;2023-10-09T16:58:16;100965.25;;;23.62;50.60
44825;BME280;30542;47.928;2.138;2023-10-09T17:03:17;100966.84;;;23.63;50.84
44825;BME280;30542;47.928;2.138;2023-10-09T17:08:17;100970.63;;;23.62;51.06
44825;BME280;30542;47.928;2.138;2023-10-09T17:13:19;100970.06;;;23.60;51.17
44825;BME280;30542;47.928;2.138;2023-10-09T17:18:24;100978.97;;;23.60;51.55
44825;BME280;30542;47.928;2.138;2023-10-09T17:23:25;100978.13;;;23.60;51.92
44825;BME280;30542;47.928;2.138;2023-10-09T17:28:25;100991.59;;;23.60;52.06
44825;BME280;30542;47.928;2.138;2023-10-09T17:33:26;100995.63;;;23.62;52.27
44825;BME280;30542;47.928;2.138;2023-10-09T17:38:26;100999.66;;;23.65;52.36
44825;BME280;30542;47.928;2.138;2023-10-09T17:43:30;101010.41;;;23.65;52.44
44825;BME280;30542;47.928;2.138;2023-10-09T17:48:31;101005.88;;;23.65;52.30
44825;BME280;30542;47.928;2.138;2023-10-09T17:53:32;100991.59;;;23.65;52.41
44825;BME280;30542;47.928;2.138;2023-10-09T17:58:32;100998.84;;;23.64;52.26
44825;BME280;30542;47.928;2.138;2023-10-09T18:03:33;101002.88;;;23.62;52.25
44825;BME280;30542;47.928;2.138;2023-10-09T18:08:34;101005.03;;;23.60;51.91
44825;BME280;30542;47.928;2.138;2023-10-09T18:13:36;101012.56;;;23.57;52.13
44825;BME280;30542;47.928;2.138;2023-10-09T18:18:38;101011.78;;;23.57;51.84
44825;BME280;30542;47.928;2.138;2023-10-09T18:23:38;101005.03;;;23.54;51.71
44825;BME280;30542;47.928;2.138;2023-10-09T18:28:44;101019.06;;;23.51;52.10
44825;BME280;30542;47.928;2.138;2023-10-09T18:33:48;101018.22;;;23.51;51.49
44825;BME280;30542;47.928;2.138;2023-10-09T18:38:52;101019.84;;;23.52;51.34
44825;BME280;30542;47.928;2.138;2023-10-09T18:43:53;101019.84;;;23.52;51.14
44825;BME280;30542;47.928;2.138;2023-10-09T18:48:54;101021.75;;;23.51;51.15
44825;BME280;30542;47.928;2.138;2023-10-09T18:54:02;101009.63;;;23.49;51.17
44825;BME280;30542;47.928;2.138;2023-10-09T18:59:04;101024.44;;;23.51;51.07
44825;BME280;30542;47.928;2.138;2023-10-09T19:04:11;101012.03;;;23.50;51.08
44825;BME280;30542;47.928;2.138;2023-10-09T19:09:12;101012.03;;;23.50;50.83
44825;BME280;30542;47.928;2.138;2023-10-09T19:14:20;101011.78;;;23.52;50.79
44825;BME280;30542;47.928;2.138;2023-10-09T19:19:20;101008.00;;;23.53;50.77
44825;BME280;30542;47.928;2.138;2023-10-09T19:24:25;101004.53;;;23.52;50.76
44825;BME280;30542;47.928;2.138;2023-10-09T19:29:25;101013.66;;;23.51;50.43
44825;BME280;30542;47.928;2.138;2023-10-09T19:34:26;101015.00;;;23.49;50.42
44825;BME280;30542;47.928;2.138;2023-10-09T19:39:26;101019.59;;;23.48;50.34
44825;BME280;30542;47.928;2.138;2023-10-09T19:44:31;101018.50;;;23.44;50.34
44825;BME280;30542;47.928;2.138;2023-10-09T19:49:32;101016.06;;;23.43;50.28
44825;BME280;30542;47.928;2.138;2023-10-09T19:54:32;101022.25;;;23.38;50.24
44825;BME280;30542;47.928;2.138;2023-10-09T19:59:36;101022.81;;;23.40;50.50
44825;BME280;30542;47.928;2.138;2023-10-09T20:04:36;101022.81;;;23.40;50.27
44825;BME280;30542;47.928;2.138;2023-10-09T20:09:37;101034.66;;;23.39;50.28
44825;BME280;30542;47.928;2.138;2023-10-09T20:14:37;101031.13;;;23.39;49.90
44825;BME280;30542;47.928;2.138;2023-10-09T20:19:38;101034.88;;;23.43;49.90
44825;BME280;30542;47.928;2.138;2023-10-09T20:24:43;101033.28;;;23.42;49.79
44825;BME280;30542;47.928;2.138;2023-10-09T20:29:43;101037.56;;;23.43;49.54
44825;BME280;30542;47.928;2.138;2023-10-09T20:34:46;101047.00;;;23.45;49.56
44825;BME280;30542;47.928;2.138;2023-10-09T20:39:47;101048.34;;;23.43;49.61
44825;BME280;30542;47.928;2.138;2023-10-09T20:44:48;101052.91;;;23.42;49.48
44825;BME280;30542;47.928;2.138;2023-10-09T20:49:49;101056.69;;;23.41;49.44
44825;BME280;30542;47.928;2.138;2023-10-09T20:54:50;101047.00;;;23.35;49.40
44825;BME280;30542;47.928;2.138;2023-10-09T20:59:50;101049.69;;;23.35;49.19
44825;BME280;30542;47.928;2.138;2023-10-09T21:04:50;101059.38;;;23.36;49.21
44825;BME280;30542;47.928;2.138;2023-10-09T21:09:52;101054.78;;;23.37;49.40
44825;BME280;30542;47.928;2.138;2023-10-09T21:14:53;101067.97;;;23.33;49.32
44825;BME280;30542;47.928;2.138;2023-10-09T21:19:53;101066.59;;;23.30;49.20
44825;BME280;30542;47.928;2.138;2023-10-09T21:24:53;101070.38;;;23.29;49.16
44825;BME280;30542;47.928;2.138;2023-10-09T21:29:55;101070.66;;;23.28;49.08
44825;BME280;30542;47.928;2.138;2023-10-09T21:34:55;101061.00;;;23.27;49.30
44825;BME280;30542;47.928;2.138;2023-10-09T21:39:56;101068.22;;;23.26;49.24
44825;BME280;30542;47.928;2.138;2023-10-09T21:44:56;101069.56;;;23.24;49.05
44825;BME280;30542;47.928;2.138;2023-10-09T21:49:57;101068.78;;;23.23;48.93
44825;BME280;30542;47.928;2.138;2023-10-09T21:54:57;101069.56;;;23.24;48.99
44825;BME280;30542;47.928;2.138;2023-10-09T21:59:57;101066.88;;;23.24;49.28
44825;BME280;30542;47.928;2.138;2023-10-09T22:04:58;101062.59;;;23.23;48.94
44825;BME280;30542;47.928;2.138;2023-10-09T22:09:58;101058.28;;;23.22;49.00
44825;BME280;30542;47.928;2.138;2023-10-09T22:14:58;101059.34;;;23.21;48.89
44825;BME280;30542;47.928;2.138;2023-10-09T22:20:01;101066.63;;;23.20;48.89
44825;BME280;30542;47.928;2.138;2023-10-09T22:25:03;101066.63;;;23.20;48.83
44825;BME280;30542;47.928;2.138;2023-10-09T22:30:06;101060.44;;;23.20;48.80
44825;BME280;30542;47.928;2.138;2023-10-09T22:35:12;101050.75;;;23.19;48.91
44825;BME280;30542;47.928;2.138;2023-10-09T22:40:14;101055.34;;;23.18;48.97
44825;BME280;30542;47.928;2.138;2023-10-09T22:45:26;101054.50;;;23.18;48.70
44825;BME280;30542;47.928;2.138;2023-10-09T22:50:30;101052.91;;;23.17;48.78
44825;BME280;30542;47.928;2.138;2023-10-09T22:55:40;101052.09;;;23.16;48.57
44825;BME280;30542;47.928;2.138;2023-10-09T23:00:55;101043.22;;;23.16;48.57
44825;BME280;30542;47.928;2.138;2023-10-09T23:06:02;101040.25;;;23.12;48.77
44825;BME280;30542;47.928;2.138;2023-10-09T23:11:11;101038.13;;;23.14;48.84
44825;BME280;30542;47.928;2.138;2023-10-09T23:16:14;101042.44;;;23.15;48.84
44825;BME280;30542;47.928;2.138;2023-10-09T23:21:15;101042.44;;;23.15;48.68
44825;BME280;30542;47.928;2.138;2023-10-09T23:26:28;101047.00;;;23.15;48.76
44825;BME280;30542;47.928;2.138;2023-10-09T23:31:35;101036.50;;;23.08;48.60
44825;BME280;30542;47.928;2.138;2023-10-09T23:36:35;101044.84;;;23.12;49.19
44825;BME280;30542;47.928;2.138;2023-10-09T23:41:48;101051.00;;;23.12;48.77
44825;BME280;30542;47.928;2.138;2023-10-09T23:47:03;101037.84;;;23.11;48.38
44825;BME280;30542;47.928;2.138;2023-10-09T23:52:09;101037.31;;;23.08;48.11
44825;BME280;30542;47.928;2.138;2023-10-09T23:57:10;101039.75;;;23.10;48.38
